Charles B. Wheeler Downtown Airport
KMKC : now visible

Airfield :











YOU CAN JOIN US ON...

 
LOGIN :

Register | Disclaimer

   EN    FR    IT 

 









Legend :    VFR   Marginal VFR   IFR   Intensive IFR   Very Intensive IFR
Visi :
Ceiling :
>= 8 km
>= 3000ft
5 to 8 km
1000 to 3000 ft
1500m to 5 km
500 to 1000 ft
800 to 1500m
200 to 500 ft
< 800m
< 200 ft
Symbols :   Thunderstorms  Fog  Heavy snow  Heavy precipitations  Wind > 20 kt







- Airport Elevation : 759 ft
- IATA code : MKC


KMKC - Charles B. Wheeler Downtown

CURRENT METAR :
  • 211319Z 01004KT 4SM -TSRA SCT045 BKN065 BKN075 23/21 A3006 RMK AO2 LTG DSNT W RAB07 TSB1258E18B19 P0008 T02330206

EXPIRED METARs :
  • 211304Z 00000KT 10SM TS SCT060 BKN080 BKN100 23/20 A3006 RMK AO2 LTG DSNT S TSB1258 T02330200
  • 211254Z VRB03KT 10SM FEW060 BKN095 BKN120 23/21 A3004 RMK AO2 LTG DSNT S RAB43E54 SLP164 P0000 T02330206
  • 211154Z 31008G16KT 10SM FEW014 FEW028 BKN100 24/22 A3002 RMK AO2 LTG DSNT ALQDS RAB01E20 TSB03E20 PRESRR SLP154 P0005 60005 70005 T02440217 10278 20244 53033
  • 211142Z 29004KT 10SM BKN100 25/22 A3000 RMK AO2 LTG DSNT ALQDS RAB01E20 TSB03E20 P0005 T02500217
  • 211126Z VRB04KT 10SM VCTS FEW046 BKN100 25/22 A3000 RMK AO2 LTG DSNT N AND NE AND S RAB01E20 TSB03E20 P0005 T02500217
  • 211103Z 34007KT 5SM TSRA SCT018 BKN048 OVC095 26/22 A2998 RMK AO2 LTG DSNT NW-NE RAB01 TSB03 P0004 T02560217
  • 211036Z 35008KT 10SM BKN023 OVC100 27/23 A2998 RMK AO2 LTG DSNT NW-NE T02670233

TAF KMKC
Valid from the 21 at 12:00 until the 22 at 12:00 UTC


211138Z 2112/2212 30007KT P6SM -SHRA VCTS BKN040CB BKN100
TEMPO 2112/2114 VRB10G25KT 3SM -TSRA BKN035CB
FM211500 17006KT P6SM FEW030 BKN040
FM212200 05008KT P6SM -SHRA VCTS BKN030CB OVC100
No reported NOTAMs for that airfield.



MET'MAP, your aeronautical weather chart ! - Copyright ORBIFLY December 2007 - Disclaimer

ORBIFLY MET'MAP TEAM :

Programming & Development : Alexandra Zaïnal
Concept & Development : Baudouin d'Aumeries
Co-Development & Prog : Marc-Olivier Méhu
Technical & hardware support : Manuel Goepfert

Contact : metmap@orbifly.com




SOURCES & CREDITS :

   NOAA       Earth
Advisory